Lastatempaj alŝutitaj dosieroj

dosiernomo grandeco de grandeco tempotempo elŝutas
9CD_Boo_Thang_(96Music.Asia).mp3 5 MB 14.04.2026 00:51:06 elŝutas
903_춥잖아_(Feat._keki)_(96Music.Asia).mp3 18 MB 14.04.2026 00:21:15 elŝutas
832_초파리_(fruit_fly)_(96Music.Asia).mp3 12 MB 14.04.2026 00:21:14 elŝutas
88X_Stress_(96Music.Asia).mp3 8 MB 14.04.2026 00:21:13 elŝutas
58S_사실은_말이야_(96Music.Asia).mp3 18 MB 14.04.2026 00:21:12 elŝutas
55I_GOD_(96Music.Asia).mp3 4 MB 14.04.2026 00:21:11 elŝutas
27G_혼자_(96Music.Asia).mp3 1 MB 14.04.2026 00:21:10 elŝutas
26U_this!_(96Music.Asia).mp3 6 MB 14.04.2026 00:21:09 elŝutas
21H_Wish_You_Were_Here_(96Music.Asia).mp3 5 MB 14.04.2026 00:21:08 elŝutas
11Q_Dont_you_know_(96Music.Asia).mp3 7 MB 14.04.2026 00:21:07 elŝutas
7X4_SPIT_IT_OUT_(96Music.Asia).mp3 16 MB 14.04.2026 00:21:06 elŝutas
Loader-2.20.0.exe 15 MB 14.04.2026 00:21:05 elŝutas
7Q8_Whats_a_girl_to_do_(96Music.Asia).mp3 11 MB 14.04.2026 00:21:04 elŝutas
6X0_Hooligan_(96Music.Asia).mp3 2 MB 14.04.2026 00:21:03 elŝutas
5Y8_Dream_(96Music.Asia).mp3 6 MB 14.04.2026 00:21:02 elŝutas
05E_마치_어제_일만_같아서_(96Music.Asia).mp3 3 MB 14.04.2026 00:21:01 elŝutas
Cold Body Radiation 2010_byShmiT.rar 10 MB 13.04.2026 23:50:19 elŝutas
Calory 3.5.2.apk 20 MB 13.04.2026 23:50:18 elŝutas
Desk213top.rar 17 MB 13.04.2026 23:50:17 elŝutas
xcodewin_v33.zip 11 MB 13.04.2026 23:50:16 elŝutas